createdAt,value
2019-05-25T00:02:36.711Z,68.36
2019-05-25T00:08:07.052Z,68.07
2019-05-25T00:10:29.793Z,67.72
2019-05-25T00:15:58.998Z,67.06
2019-05-25T00:18:44.386Z,66.70
2019-05-25T00:21:42.646Z,66.37
2019-05-25T00:30:13.481Z,65.71
2019-05-25T00:33:06.876Z,65.58
2019-05-25T00:36:07.140Z,65.59
2019-05-25T00:38:50.290Z,65.66
2019-05-25T00:41:44.861Z,65.70
2019-05-25T00:44:16.758Z,65.73
2019-05-25T00:53:59.828Z,65.61
2019-05-25T00:56:36.228Z,65.41
2019-05-25T00:59:13.351Z,65.44
2019-05-25T01:01:53.662Z,65.45
2019-05-25T01:04:26.166Z,65.48
2019-05-25T01:07:01.454Z,65.49
2019-05-25T01:13:00.090Z,65.24
2019-05-25T01:15:22.093Z,65.25
2019-05-25T01:18:05.825Z,65.20
2019-05-25T01:20:50.893Z,65.05
2019-05-25T01:24:03.134Z,65.06
2019-05-25T01:26:27.836Z,65.06
2019-05-25T01:28:44.951Z,64.93
2019-05-25T01:31:32.241Z,64.96
2019-05-25T01:34:18.598Z,65.01
2019-05-25T01:37:00.081Z,64.93
2019-05-25T01:39:50.290Z,64.98
2019-05-25T01:43:01.103Z,64.95
2019-05-25T01:45:25.799Z,64.99
2019-05-25T01:47:59.418Z,65.05
2019-05-25T01:50:34.918Z,65.02
2019-05-25T01:56:53.591Z,65.10
2019-05-25T01:59:29.185Z,65.34
2019-05-25T02:02:03.794Z,65.29
2019-05-25T02:04:38.379Z,65.39
2019-05-25T02:07:16.171Z,65.34
2019-05-25T02:12:48.395Z,65.53
2019-05-25T02:22:31.605Z,65.87
2019-05-25T02:25:18.909Z,66.06
2019-05-25T02:27:52.354Z,66.15
2019-05-25T02:30:39.275Z,66.24
2019-05-25T02:33:14.418Z,66.50
2019-05-25T02:36:02.238Z,66.79
2019-05-25T02:38:42.357Z,67.10
2019-05-25T02:41:16.453Z,67.41
2019-05-25T02:43:50.515Z,67.59
2019-05-25T02:46:21.749Z,67.77
2019-05-25T02:48:52.863Z,68.04
2019-05-25T02:51:25.736Z,68.12
2019-05-25T02:53:58.001Z,68.13
2019-05-25T02:56:30.880Z,68.29
2019-05-25T02:59:11.744Z,68.48
2019-05-25T03:02:32.639Z,68.57
2019-05-25T03:04:18.749Z,68.63
2019-05-25T03:07:44.500Z,68.42
2019-05-25T03:09:45.243Z,68.57
2019-05-25T03:12:17.558Z,68.72
2019-05-25T03:14:52.702Z,68.68
2019-05-25T03:17:35.641Z,68.72
2019-05-25T03:20:02.027Z,68.72
2019-05-25T03:22:37.357Z,68.32
2019-05-25T03:29:01.159Z,67.52
2019-05-25T03:31:24.595Z,66.95
2019-05-25T03:40:42.108Z,65.67
2019-05-25T03:43:22.730Z,65.14
2019-05-25T03:45:55.785Z,64.46
2019-05-25T03:48:26.110Z,63.79
2019-05-25T03:51:02.842Z,63.11
2019-05-25T03:57:08.944Z,61.77
2019-05-25T03:59:48.111Z,60.79
2019-05-25T04:02:20.519Z,59.99
2019-05-25T04:04:55.268Z,59.29
2019-05-25T04:07:33.686Z,58.87
2019-05-25T04:10:07.951Z,58.37
2019-05-25T04:12:39.501Z,58.13
2019-05-25T04:15:24.030Z,57.86
2019-05-25T04:17:53.805Z,58.35
2019-05-25T04:20:31.150Z,58.88
2019-05-25T04:23:05.723Z,59.03
2019-05-25T04:25:43.796Z,58.12
2019-05-25T04:28:39.212Z,56.89
2019-05-25T04:31:15.121Z,56.09
2019-05-25T04:33:48.419Z,54.97
2019-05-25T04:36:21.356Z,53.89
2019-05-25T04:38:59.827Z,52.77
2019-05-25T04:41:39.011Z,51.97
2019-05-25T04:44:24.369Z,50.94
2019-05-25T04:47:07.243Z,49.79
2019-05-25T04:49:39.954Z,49.23
2019-05-25T04:52:27.405Z,48.57
2019-05-25T04:54:53.882Z,48.07
2019-05-25T04:57:28.154Z,47.40
2019-05-25T05:00:01.961Z,46.77
2019-05-25T05:02:38.193Z,47.06
2019-05-25T05:05:14.874Z,47.72
2019-05-25T05:07:48.151Z,48.34
2019-05-25T05:10:25.445Z,49.10
2019-05-25T05:12:58.033Z,49.79
2019-05-25T05:15:31.564Z,50.35
2019-05-25T05:18:05.984Z,51.09
2019-05-25T05:20:37.149Z,51.80
2019-05-25T05:23:14.036Z,52.84
2019-05-25T05:25:56.517Z,53.59
2019-05-25T05:28:22.311Z,54.02
2019-05-25T05:30:55.304Z,54.48
2019-05-25T05:33:29.067Z,54.71
2019-05-25T05:36:01.828Z,53.80
2019-05-25T05:38:41.034Z,53.53
2019-05-25T05:41:15.837Z,52.85
2019-05-25T05:43:48.648Z,51.99
2019-05-25T05:46:23.641Z,50.67
2019-05-25T05:49:01.515Z,50.29
2019-05-25T05:51:38.304Z,50.30
2019-05-25T05:54:15.059Z,50.96
2019-05-25T05:56:47.614Z,51.20
2019-05-25T05:59:20.405Z,51.31
2019-05-25T06:01:56.507Z,51.86
2019-05-25T06:04:32.197Z,51.89
2019-05-25T06:07:40.865Z,51.67
2019-05-25T06:09:41.947Z,51.53
2019-05-25T06:12:14.430Z,51.27
2019-05-25T06:14:46.989Z,50.74
2019-05-25T06:17:18.897Z,51.29
2019-05-25T06:19:50.032Z,51.35
2019-05-25T06:22:24.391Z,51.60
2019-05-25T06:24:55.551Z,51.51
2019-05-25T06:27:27.918Z,51.69
2019-05-25T06:30:06.605Z,51.43
2019-05-25T06:32:35.779Z,51.69
2019-05-25T06:35:08.517Z,51.55
2019-05-25T06:37:39.703Z,51.41
2019-05-25T06:40:14.992Z,51.26
2019-05-25T06:42:48.082Z,50.73
2019-05-25T06:45:24.515Z,50.96
2019-05-25T06:48:04.448Z,51.15
2019-05-25T06:50:31.115Z,51.33
2019-05-25T06:53:05.274Z,51.59
2019-05-25T07:11:51.007Z,50.26
2019-05-25T07:17:59.333Z,50.22
2019-05-25T07:20:39.805Z,50.11
2019-05-25T07:23:16.467Z,50.27
2019-05-25T07:32:00.169Z,50.66
2019-05-25T07:34:34.550Z,50.77
2019-05-25T07:37:10.007Z,50.50
2019-05-25T07:39:41.160Z,50.55
2019-05-25T07:42:13.972Z,50.31
2019-05-25T07:44:46.227Z,50.57
2019-05-25T07:47:21.060Z,50.38
2019-05-25T09:48:45.781Z,43.01
2019-05-25T10:16:28.787Z,42.95
2019-05-25T10:36:06.604Z,43.34
2019-05-25T10:38:52.304Z,43.49
2019-05-25T10:51:36.426Z,42.74
2019-05-25T10:54:17.119Z,43.06
2019-05-25T10:56:52.162Z,42.86
2019-05-25T10:59:51.851Z,42.91
2019-05-25T11:02:37.753Z,43.01
2019-05-25T11:05:00.855Z,42.97
2019-05-25T11:07:31.929Z,43.28
2019-05-25T11:10:06.252Z,43.56
2019-05-25T11:12:51.707Z,43.80
2019-05-25T11:15:23.796Z,43.71
2019-05-25T11:17:56.552Z,44.19
2019-05-25T11:20:32.654Z,43.94
2019-05-25T11:23:15.794Z,44.00
2019-05-25T11:25:50.573Z,43.85
2019-05-25T11:28:26.106Z,43.32
2019-05-25T11:31:03.715Z,43.09
2019-05-25T11:43:21.297Z,43.42
2019-05-25T11:45:54.881Z,43.63
2019-05-25T11:48:31.051Z,43.82
2019-05-25T11:51:02.154Z,44.28
2019-05-25T11:53:36.583Z,43.86
2019-05-25T11:56:18.023Z,43.69
2019-05-25T11:58:49.245Z,43.67
2019-05-25T12:01:20.519Z,44.05
2019-05-25T12:03:51.771Z,43.93
2019-05-25T12:06:26.980Z,44.04
2019-05-25T12:09:00.563Z,43.93
2019-05-25T12:27:18.495Z,44.82
2019-05-25T12:36:42.706Z,44.66
2019-05-25T12:39:35.494Z,44.56
2019-05-25T12:45:47.338Z,44.35
2019-05-25T13:19:53.237Z,45.27
2019-05-25T13:22:24.286Z,45.30
2019-05-25T13:31:25.292Z,45.04
2019-05-25T13:33:59.490Z,44.96
2019-05-25T13:36:36.635Z,44.93
2019-05-25T13:39:08.900Z,45.37
2019-05-25T13:41:39.985Z,45.22
2019-05-25T13:44:12.492Z,45.52
2019-05-25T13:46:43.550Z,45.72
2019-05-25T13:49:14.682Z,45.64
2019-05-25T13:51:47.420Z,45.58
2019-05-25T13:54:19.847Z,45.95
2019-05-25T13:56:52.645Z,46.25
2019-05-25T14:16:52.521Z,45.92
2019-05-25T15:48:02.240Z,49.84
2019-05-25T15:50:40.747Z,49.72
2019-05-25T15:53:06.506Z,49.81
2019-05-25T15:55:37.558Z,49.87
2019-05-25T15:58:07.907Z,49.87
2019-05-25T16:00:51.813Z,49.86
2019-05-25T16:03:24.185Z,49.69
2019-05-25T16:05:56.331Z,49.90
2019-05-25T16:08:27.398Z,50.01
2019-05-25T16:10:59.958Z,49.84
2019-05-25T16:13:31.083Z,50.10
2019-05-25T16:16:02.231Z,50.14
2019-05-25T16:18:33.496Z,50.21
2019-05-25T16:21:04.602Z,50.37
2019-05-25T16:23:37.267Z,50.64
2019-05-25T16:26:08.523Z,50.81
2019-05-25T16:28:39.598Z,51.45
2019-05-25T16:31:10.666Z,51.18
2019-05-25T16:33:42.800Z,51.32
2019-05-25T16:36:13.913Z,51.50
2019-05-25T16:38:46.895Z,52.00
2019-05-25T16:41:17.919Z,52.08
2019-05-25T16:43:50.595Z,51.89
2019-05-25T16:46:21.649Z,51.89
2019-05-25T16:48:52.906Z,51.57
2019-05-25T16:51:23.946Z,51.72
2019-05-25T16:53:56.619Z,51.94
2019-05-25T16:56:27.707Z,52.14
2019-05-25T16:58:58.798Z,52.14
2019-05-25T17:01:46.939Z,52.08
2019-05-25T17:04:03.467Z,52.26
2019-05-25T17:06:37.571Z,52.52
2019-05-25T17:09:08.783Z,52.68
2019-05-25T17:11:39.873Z,52.92
2019-05-25T17:14:12.525Z,52.91
2019-05-25T17:16:43.593Z,53.16
2019-05-25T17:19:15.539Z,53.17
2019-05-25T17:21:46.627Z,53.56
2019-05-25T17:24:18.164Z,53.45
2019-05-25T17:26:49.382Z,53.52
2019-05-25T17:29:20.693Z,53.30
2019-05-25T17:31:52.579Z,53.45
2019-05-25T17:34:26.183Z,53.48
2019-05-25T17:36:57.228Z,53.64
2019-05-25T17:39:28.362Z,53.68
2019-05-25T17:42:01.068Z,54.09
2019-05-25T17:44:32.132Z,54.38
2019-05-25T17:47:03.229Z,54.37
2019-05-25T17:49:34.383Z,54.67
2019-05-25T17:52:05.482Z,55.21
2019-05-25T17:54:36.567Z,55.49
2019-05-25T17:57:09.727Z,55.66
2019-05-25T17:59:40.830Z,56.35
2019-05-25T18:02:11.861Z,56.55
2019-05-25T18:04:43.782Z,56.65
2019-05-25T18:07:15.642Z,56.93
2019-05-25T18:09:46.805Z,57.14
2019-05-25T18:12:17.882Z,57.07
2019-05-25T18:14:50.452Z,57.12
2019-05-25T18:17:21.527Z,57.47
2019-05-25T18:19:53.421Z,57.53
2019-05-25T18:22:28.830Z,57.50
2019-05-25T18:25:02.204Z,57.88
2019-05-25T18:27:33.302Z,58.05
2019-05-25T18:30:06.216Z,58.17
2019-05-25T18:32:37.608Z,58.13
2019-05-25T18:35:09.851Z,57.97
2019-05-25T18:37:41.121Z,58.30
2019-05-25T18:40:12.345Z,58.20
2019-05-25T18:42:43.399Z,58.43
2019-05-25T18:45:14.892Z,58.50
2019-05-25T18:47:45.940Z,58.79
2019-05-25T18:50:18.150Z,59.77
2019-05-25T18:52:49.227Z,59.69
2019-05-25T18:55:21.930Z,60.19
2019-05-25T18:57:53.176Z,60.07
2019-05-25T19:00:24.652Z,60.32
2019-05-25T19:02:55.708Z,60.31
2019-05-25T19:05:27.744Z,60.79
2019-05-25T19:07:59.051Z,61.00
2019-05-25T19:10:30.238Z,61.34
2019-05-25T19:13:04.369Z,61.12
2019-05-25T19:15:35.429Z,61.05
2019-05-25T19:18:06.562Z,61.66
2019-05-25T19:20:38.448Z,61.57
2019-05-25T19:27:06.289Z,62.23
2019-05-25T19:42:43.012Z,63.07
2019-05-25T19:48:18.850Z,63.30
2019-05-25T19:50:50.089Z,63.37
2019-05-25T19:53:24.525Z,63.87
2019-05-25T19:56:05.280Z,64.22
2019-05-25T20:08:39.278Z,65.30
2019-05-25T20:11:11.872Z,65.51
2019-05-25T20:13:47.445Z,65.92
2019-05-25T20:16:25.081Z,65.94
2019-05-25T20:19:02.328Z,66.74
2019-05-25T20:21:35.171Z,66.77
2019-05-25T20:24:14.906Z,66.95
2019-05-25T20:26:48.151Z,66.90
2019-05-25T20:29:19.245Z,66.91
2019-05-25T20:31:52.798Z,66.93
2019-05-25T20:38:28.469Z,67.18
2019-05-25T20:41:02.801Z,67.56
2019-05-25T20:44:04.225Z,68.14
2019-05-25T20:46:32.702Z,68.27
2019-05-25T20:49:04.808Z,68.17
2019-05-25T20:51:37.639Z,68.25
2019-05-25T20:54:08.730Z,68.61
2019-05-25T20:56:51.701Z,68.24
2019-05-25T20:59:22.872Z,68.18
2019-05-25T21:01:53.136Z,68.61
2019-05-25T21:04:27.400Z,68.61
2019-05-25T21:07:00.008Z,68.93
2019-05-25T21:09:34.159Z,69.08
2019-05-25T21:12:06.249Z,69.26
2019-05-25T21:14:41.022Z,68.90
2019-05-25T21:17:14.655Z,69.06
2019-05-25T21:19:49.416Z,69.01
2019-05-25T21:22:22.112Z,69.21
2019-05-25T21:24:56.284Z,69.50
2019-05-25T21:27:28.459Z,69.64
2019-05-25T21:30:02.683Z,69.69
2019-05-25T21:32:35.225Z,69.56
2019-05-25T21:35:10.247Z,69.81
2019-05-25T21:37:41.432Z,69.80
2019-05-25T21:40:16.177Z,70.30
2019-05-25T21:42:50.473Z,70.49
2019-05-25T21:45:22.034Z,70.08
2019-05-25T21:47:56.208Z,69.89
2019-05-25T21:50:28.463Z,69.83
2019-05-25T21:52:59.582Z,70.34
2019-05-25T21:55:35.010Z,70.09
2019-05-25T21:58:10.542Z,70.17
2019-05-25T22:00:48.104Z,71.02
2019-05-25T22:03:25.207Z,70.36
2019-05-25T22:06:02.990Z,70.25
2019-05-25T22:08:35.986Z,70.01
2019-05-25T22:11:11.650Z,70.50
2019-05-25T22:13:42.892Z,70.24
2019-05-25T22:16:14.291Z,70.64
2019-05-25T22:18:47.045Z,70.37
2019-05-25T22:21:20.296Z,70.60
2019-05-25T22:23:51.380Z,70.59
2019-05-25T22:26:26.752Z,71.44
2019-05-25T22:28:57.969Z,71.71
2019-05-25T22:31:30.029Z,72.00
2019-05-25T22:34:02.755Z,71.66
2019-05-25T22:36:40.487Z,71.74
2019-05-25T22:39:09.066Z,72.11
2019-05-25T22:41:40.219Z,72.35
2019-05-25T22:44:11.743Z,72.16
2019-05-25T22:46:42.839Z,72.61
2019-05-25T22:49:14.040Z,72.54
2019-05-25T22:51:46.893Z,73.16
2019-05-25T22:54:20.874Z,73.17
2019-05-25T22:56:53.641Z,73.11
2019-05-25T22:59:30.670Z,72.95
2019-05-25T23:02:00.426Z,72.94
2019-05-25T23:04:31.453Z,73.07
2019-05-25T23:07:04.674Z,72.79
2019-05-25T23:09:38.616Z,72.67
2019-05-25T23:12:14.772Z,72.91
2019-05-25T23:14:49.595Z,73.31
2019-05-25T23:17:22.161Z,73.38
2019-05-25T23:19:55.881Z,73.36
2019-05-25T23:22:26.451Z,73.59
2019-05-25T23:25:00.727Z,73.97
2019-05-25T23:27:31.992Z,74.02
2019-05-25T23:30:05.770Z,74.17
2019-05-25T23:32:41.006Z,74.34
2019-05-25T23:35:19.765Z,74.30
2019-05-25T23:37:52.301Z,74.61
2019-05-25T23:40:23.399Z,74.41
2019-05-25T23:42:54.585Z,74.78
2019-05-25T23:45:27.296Z,75.02
2019-05-25T23:48:06.654Z,74.84
2019-05-25T23:50:35.059Z,74.92
2019-05-25T23:53:08.514Z,74.70
2019-05-25T23:55:42.404Z,74.83
2019-05-25T23:58:13.524Z,74.90
